Main page
METAR-TAF:

METAR-TAF

Airports :

Larestan International Airport

Lar, Iran

latitude: 27-40-26N, longitude: 054-22-53E, elevation: 792 m

Current weather observation

The report was made 54 minutes ago, at 01:00 UTC
Calm wind
Temperature 8°C
Humidity 81%
Pressure 1019 hPa
Visibility 10 km or more
no clouds below 1500 m and no cumulonimbus

METAR: OISL 180100Z 00000KT CAVOK 08/05 Q1019

Time: 05:24 (01:54 UTC)

Forecast

The report was made 2 hours and 54 minutes ago, at 23:00 UTC
Forecast valid from 18 at 00 UTC to 19 at 06 UTC
Wind 8 kt from the Southeast
Visibility: 7000 m
Becoming
from 18 at 09 UTC to 18 at 10 UTC
Few clouds at a height of 3500 ft, Cumulonimbus.
Scattered clouds at a height of 4000 ft
Broken clouds at a height of 10000 ft
Becoming
from 18 at 16 UTC to 18 at 18 UTC
Few clouds at a height of 3500 ft
Scattered clouds at a height of 4000 ft
Scattered clouds at a height of 10000 ft

TAF: OISL 172300Z 1800/1906 14008KT 7000 NSC BECMG 1809/1810 FEW035CB SCT040 BKN100 BECMG 1816/1818 FEW035 SCT040 SCT100

Weather observations and forecasts of more than 4000 airports (METAR and TAF reports).

The available stations are represented by yellow and red dots on the map.

Hover mouse over dot to see the name of the station.

Then click to see weather observations and forecasts.

To change the map : click on the green buttons with a black cross to zoom in, on the green button with a dash to zoom out, or on the green arrows for adjacent maps.


METAR-TAF: